sensor_id;sensor_type;location;lat;lon;timestamp;pressure;altitude;pressure_sealevel;temperature;humidity
61318;BME280;47201;40.428;-8.436;2023-05-20T00:00:34;100603.63;;;14.08;93.21
61318;BME280;47201;40.428;-8.436;2023-05-20T00:02:35;100598.59;;;13.96;92.87
61318;BME280;47201;40.428;-8.436;2023-05-20T00:04:35;100595.38;;;13.80;93.34
61318;BME280;47201;40.428;-8.436;2023-05-20T00:06:36;100601.59;;;13.74;92.98
61318;BME280;47201;40.428;-8.436;2023-05-20T00:08:38;100605.38;;;13.56;94.02
61318;BME280;47201;40.428;-8.436;2023-05-20T00:10:38;100603.69;;;13.51;94.78
61318;BME280;47201;40.428;-8.436;2023-05-20T00:12:58;100599.47;;;13.42;95.39
61318;BME280;47201;40.428;-8.436;2023-05-20T00:15:17;100599.41;;;13.46;93.57
61318;BME280;47201;40.428;-8.436;2023-05-20T00:17:37;100599.34;;;13.49;92.48
61318;BME280;47201;40.428;-8.436;2023-05-20T00:19:37;100603.69;;;13.51;91.87
61318;BME280;47201;40.428;-8.436;2023-05-20T00:21:57;100600.16;;;13.55;91.05
61318;BME280;47201;40.428;-8.436;2023-05-20T00:24:16;100599.25;;;13.56;90.41
61318;BME280;47201;40.428;-8.436;2023-05-20T00:26:17;100594.88;;;13.56;89.57
61318;BME280;47201;40.428;-8.436;2023-05-20T00:28:25;100594.88;;;13.56;89.02
61318;BME280;47201;40.428;-8.436;2023-05-20T00:35:25;100594.56;;;13.75;89.08
61318;BME280;47201;40.428;-8.436;2023-05-20T00:43:00;100585.53;;;13.91;87.30
61318;BME280;47201;40.428;-8.436;2023-05-20T00:47:41;100566.31;;;14.36;68.37
61318;BME280;47201;40.428;-8.436;2023-05-20T00:52:06;100574.13;;;14.85;72.01
61318;BME280;47201;40.428;-8.436;2023-05-20T00:59:42;100562.47;;;15.34;66.16
61318;BME280;47201;40.428;-8.436;2023-05-20T01:01:43;100561.19;;;15.52;65.52
61318;BME280;47201;40.428;-8.436;2023-05-20T01:03:44;100572.53;;;15.56;66.32
61318;BME280;47201;40.428;-8.436;2023-05-20T01:05:44;100564.25;;;15.70;62.75
61318;BME280;47201;40.428;-8.436;2023-05-20T01:07:46;100560.03;;;16.00;60.65
61318;BME280;47201;40.428;-8.436;2023-05-20T01:12:47;100549.50;;;16.93;54.21
61318;BME280;47201;40.428;-8.436;2023-05-20T01:22:56;100536.03;;;18.34;53.88
61318;BME280;47201;40.428;-8.436;2023-05-20T01:25:00;100535.94;;;18.37;54.15
61318;BME280;47201;40.428;-8.436;2023-05-20T01:27:04;100544.34;;;18.48;54.63
61318;BME280;47201;40.428;-8.436;2023-05-20T01:29:09;100546.81;;;18.53;55.47
61318;BME280;47201;40.428;-8.436;2023-05-20T01:31:19;100539.34;;;18.64;56.14
61318;BME280;47201;40.428;-8.436;2023-05-20T01:33:23;100549.81;;;18.67;56.09
61318;BME280;47201;40.428;-8.436;2023-05-20T01:35:25;100543.69;;;18.65;56.97
61318;BME280;47201;40.428;-8.436;2023-05-20T01:37:44;100548.81;;;18.70;57.17
61318;BME280;47201;40.428;-8.436;2023-05-20T01:42:43;100548.81;;;18.70;58.56
61318;BME280;47201;40.428;-8.436;2023-05-20T01:45:04;100546.25;;;18.68;59.56
61318;BME280;47201;40.428;-8.436;2023-05-20T01:49:44;100547.22;;;18.66;60.86
61318;BME280;47201;40.428;-8.436;2023-05-20T01:52:07;100498.69;;;18.65;60.86
61318;BME280;47201;40.428;-8.436;2023-05-20T01:54:09;100540.09;;;18.68;61.61
61318;BME280;47201;40.428;-8.436;2023-05-20T01:58:48;100538.78;;;18.56;62.59
61318;BME280;47201;40.428;-8.436;2023-05-20T02:01:07;100537.88;;;18.55;62.69
61318;BME280;47201;40.428;-8.436;2023-05-20T02:03:27;100528.22;;;18.54;63.32
61318;BME280;47201;40.428;-8.436;2023-05-20T02:05:28;100525.03;;;18.46;63.94
61318;BME280;47201;40.428;-8.436;2023-05-20T02:10:27;100529.34;;;18.49;64.77
61318;BME280;47201;40.428;-8.436;2023-05-20T02:12:30;100506.78;;;18.38;65.44
61318;BME280;47201;40.428;-8.436;2023-05-20T02:17:27;100519.09;;;18.39;66.24
61318;BME280;47201;40.428;-8.436;2023-05-20T02:19:46;100525.44;;;18.35;66.67
61318;BME280;47201;40.428;-8.436;2023-05-20T02:21:48;100519.31;;;18.33;67.29
61318;BME280;47201;40.428;-8.436;2023-05-20T02:23:50;100498.25;;;18.30;67.58
61318;BME280;47201;40.428;-8.436;2023-05-20T02:26:10;100516.72;;;18.32;68.09
61318;BME280;47201;40.428;-8.436;2023-05-20T02:28:11;100509.13;;;18.22;68.73
61318;BME280;47201;40.428;-8.436;2023-05-20T02:30:30;100501.06;;;18.26;69.13
61318;BME280;47201;40.428;-8.436;2023-05-20T02:37:10;100496.91;;;18.18;70.28
61318;BME280;47201;40.428;-8.436;2023-05-20T02:39:30;100514.66;;;18.16;70.81
61318;BME280;47201;40.428;-8.436;2023-05-20T02:43:50;100514.97;;;18.07;71.54
61318;BME280;47201;40.428;-8.436;2023-05-20T02:45:50;100494.72;;;18.06;71.70
61318;BME280;47201;40.428;-8.436;2023-05-20T02:50:32;100503.88;;;17.97;71.92
61318;BME280;47201;40.428;-8.436;2023-05-20T02:52:32;100474.09;;;17.90;72.20
61318;BME280;47201;40.428;-8.436;2023-05-20T02:54:38;100503.06;;;17.95;72.29
61318;BME280;47201;40.428;-8.436;2023-05-20T03:01:19;100465.34;;;17.88;72.50
61318;BME280;47201;40.428;-8.436;2023-05-20T03:06:17;100482.94;;;17.89;72.98
61318;BME280;47201;40.428;-8.436;2023-05-20T03:10:39;100497.28;;;17.82;73.48
61318;BME280;47201;40.428;-8.436;2023-05-20T03:18:36;100490.66;;;17.70;73.66
61318;BME280;47201;40.428;-8.436;2023-05-20T03:36:28;100457.91;;;17.49;74.67
61318;BME280;47201;40.428;-8.436;2023-05-20T03:39:06;100479.16;;;17.46;75.09
61318;BME280;47201;40.428;-8.436;2023-05-20T03:41:27;100464.34;;;17.40;74.54
61318;BME280;47201;40.428;-8.436;2023-05-20T03:43:47;100472.25;;;17.42;74.68
61318;BME280;47201;40.428;-8.436;2023-05-20T03:46:25;100460.03;;;17.38;75.24
61318;BME280;47201;40.428;-8.436;2023-05-20T03:51:04;100472.66;;;17.29;75.18
61318;BME280;47201;40.428;-8.436;2023-05-20T03:55:43;100479.94;;;17.23;74.99
61318;BME280;47201;40.428;-8.436;2023-05-20T03:58:05;100473.00;;;17.19;75.69
61318;BME280;47201;40.428;-8.436;2023-05-20T04:00:07;100460.97;;;17.10;75.71
61318;BME280;47201;40.428;-8.436;2023-05-20T04:02:16;100453.25;;;17.04;75.89
61318;BME280;47201;40.428;-8.436;2023-05-20T04:04:17;100470.09;;;17.00;75.88
61318;BME280;47201;40.428;-8.436;2023-05-20T04:06:37;100478.97;;;16.97;75.59
61318;BME280;47201;40.428;-8.436;2023-05-20T04:08:38;100470.28;;;16.93;75.74
61318;BME280;47201;40.428;-8.436;2023-05-20T04:10:42;100438.63;;;16.93;75.17
61318;BME280;47201;40.428;-8.436;2023-05-20T04:12:45;100476.50;;;16.91;74.84
61318;BME280;47201;40.428;-8.436;2023-05-20T04:14:46;100462.53;;;16.87;75.14
61318;BME280;47201;40.428;-8.436;2023-05-20T04:16:49;100467.09;;;16.82;75.48
61318;BME280;47201;40.428;-8.436;2023-05-20T04:19:11;100437.34;;;16.77;75.42
61318;BME280;47201;40.428;-8.436;2023-05-20T04:21:11;100446.22;;;16.74;75.69
61318;BME280;47201;40.428;-8.436;2023-05-20T04:23:13;100448.09;;;16.71;75.64
61318;BME280;47201;40.428;-8.436;2023-05-20T04:27:34;100474.69;;;16.64;75.89
61318;BME280;47201;40.428;-8.436;2023-05-20T04:35:47;100450.38;;;16.53;76.63
61318;BME280;47201;40.428;-8.436;2023-05-20T04:43:08;100470.91;;;16.43;77.24
61318;BME280;47201;40.428;-8.436;2023-05-20T04:55:23;100430.69;;;16.35;78.47
61318;BME280;47201;40.428;-8.436;2023-05-20T04:57:25;100408.75;;;16.34;78.38
61318;BME280;47201;40.428;-8.436;2023-05-20T04:59:26;100446.50;;;16.37;78.43
61318;BME280;47201;40.428;-8.436;2023-05-20T05:04:06;100424.75;;;16.28;79.01
61318;BME280;47201;40.428;-8.436;2023-05-20T05:06:07;100425.72;;;16.26;79.25
61318;BME280;47201;40.428;-8.436;2023-05-20T05:08:08;100419.66;;;16.22;79.30
61318;BME280;47201;40.428;-8.436;2023-05-20T05:10:15;100413.56;;;16.20;79.54
61318;BME280;47201;40.428;-8.436;2023-05-20T05:12:16;100410.94;;;16.20;79.73
61318;BME280;47201;40.428;-8.436;2023-05-20T05:14:17;100430.38;;;16.16;79.46
61318;BME280;47201;40.428;-8.436;2023-05-20T05:16:18;100430.34;;;16.17;79.87
61318;BME280;47201;40.428;-8.436;2023-05-20T05:18:19;100420.88;;;16.10;80.08
61318;BME280;47201;40.428;-8.436;2023-05-20T05:20:20;100444.63;;;16.09;80.34
61318;BME280;47201;40.428;-8.436;2023-05-20T05:22:40;100436.88;;;16.04;80.70
61318;BME280;47201;40.428;-8.436;2023-05-20T05:24:41;100431.75;;;15.98;80.77
61318;BME280;47201;40.428;-8.436;2023-05-20T05:26:42;100429.13;;;15.98;81.00
61318;BME280;47201;40.428;-8.436;2023-05-20T05:29:01;100430.06;;;15.97;81.28
61318;BME280;47201;40.428;-8.436;2023-05-20T05:31:21;100443.38;;;15.92;81.50
61318;BME280;47201;40.428;-8.436;2023-05-20T05:33:40;100411.63;;;15.95;81.60
61318;BME280;47201;40.428;-8.436;2023-05-20T05:35:41;100430.88;;;15.99;81.30
61318;BME280;47201;40.428;-8.436;2023-05-20T05:37:42;100375.63;;;15.94;81.57
61318;BME280;47201;40.428;-8.436;2023-05-20T05:39:44;100399.34;;;15.96;81.58
61318;BME280;47201;40.428;-8.436;2023-05-20T05:41:45;100388.91;;;15.91;81.69
61318;BME280;47201;40.428;-8.436;2023-05-20T05:44:04;100415.09;;;15.97;82.02
61318;BME280;47201;40.428;-8.436;2023-05-20T05:46:05;100403.66;;;15.98;81.88
61318;BME280;47201;40.428;-8.436;2023-05-20T05:48:06;100407.13;;;16.00;81.88
61318;BME280;47201;40.428;-8.436;2023-05-20T05:50:07;100422.09;;;15.98;82.22
61318;BME280;47201;40.428;-8.436;2023-05-20T05:52:09;100387.88;;;15.97;82.00
61318;BME280;47201;40.428;-8.436;2023-05-20T05:54:29;100407.13;;;15.99;82.08
61318;BME280;47201;40.428;-8.436;2023-05-20T05:56:30;100406.09;;;16.05;82.16
61318;BME280;47201;40.428;-8.436;2023-05-20T05:58:32;100428.03;;;16.05;82.30
61318;BME280;47201;40.428;-8.436;2023-05-20T06:00:33;100382.44;;;16.01;82.24
61318;BME280;47201;40.428;-8.436;2023-05-20T06:05:30;100422.00;;;16.01;82.62
61318;BME280;47201;40.428;-8.436;2023-05-20T06:07:50;100426.41;;;16.01;82.68
61318;BME280;47201;40.428;-8.436;2023-05-20T06:09:52;100420.91;;;16.09;82.38
61318;BME280;47201;40.428;-8.436;2023-05-20T06:11:53;100431.50;;;16.07;82.74
61318;BME280;47201;40.428;-8.436;2023-05-20T06:13:54;100432.38;;;16.08;82.66
61318;BME280;47201;40.428;-8.436;2023-05-20T06:15:55;100449.91;;;16.09;82.77
61318;BME280;47201;40.428;-8.436;2023-05-20T06:17:58;100454.34;;;16.08;82.65
61318;BME280;47201;40.428;-8.436;2023-05-20T06:20:00;100421.75;;;16.11;81.89
61318;BME280;47201;40.428;-8.436;2023-05-20T06:22:01;100462.94;;;16.15;82.18
61318;BME280;47201;40.428;-8.436;2023-05-20T06:24:02;100447.66;;;16.26;81.95
61318;BME280;47201;40.428;-8.436;2023-05-20T06:26:22;100452.88;;;16.29;81.83
61318;BME280;47201;40.428;-8.436;2023-05-20T06:30:42;100458.91;;;16.33;81.85
61318;BME280;47201;40.428;-8.436;2023-05-20T06:33:01;100454.47;;;16.33;81.45
61318;BME280;47201;40.428;-8.436;2023-05-20T06:35:04;100448.94;;;16.43;81.23
61318;BME280;47201;40.428;-8.436;2023-05-20T06:39:44;100441.94;;;16.42;80.79
61318;BME280;47201;40.428;-8.436;2023-05-20T06:42:05;100460.06;;;16.53;81.01
61318;BME280;47201;40.428;-8.436;2023-05-20T06:44:10;100441.59;;;16.53;80.91
61318;BME280;47201;40.428;-8.436;2023-05-20T06:46:47;100453.66;;;16.61;80.57
61318;BME280;47201;40.428;-8.436;2023-05-20T06:48:49;100442.09;;;16.65;80.54
61318;BME280;47201;40.428;-8.436;2023-05-20T06:53:47;100446.94;;;16.79;79.92
61318;BME280;47201;40.428;-8.436;2023-05-20T06:58:27;100441.41;;;16.87;80.07
61318;BME280;47201;40.428;-8.436;2023-05-20T07:03:06;100425.19;;;17.01;80.03
61318;BME280;47201;40.428;-8.436;2023-05-20T07:05:07;100429.28;;;17.10;79.81
61318;BME280;47201;40.428;-8.436;2023-05-20T07:09:27;100431.81;;;17.40;79.64
61318;BME280;47201;40.428;-8.436;2023-05-20T07:14:27;100437.84;;;17.69;79.10
61318;BME280;47201;40.428;-8.436;2023-05-20T07:26:37;100435.03;;;17.23;80.65
61318;BME280;47201;40.428;-8.436;2023-05-20T07:28:39;100425.59;;;17.14;80.96
61318;BME280;47201;40.428;-8.436;2023-05-20T07:30:39;100433.22;;;17.23;80.94
61318;BME280;47201;40.428;-8.436;2023-05-20T07:33:09;100421.00;;;17.21;80.90
61318;BME280;47201;40.428;-8.436;2023-05-20T07:35:29;100439.50;;;17.46;80.90
61318;BME280;47201;40.428;-8.436;2023-05-20T07:46:02;100421.16;;;17.16;81.46
61318;BME280;47201;40.428;-8.436;2023-05-20T07:48:41;100421.53;;;17.31;81.39
61318;BME280;47201;40.428;-8.436;2023-05-20T07:53:20;100430.06;;;17.64;80.65
61318;BME280;47201;40.428;-8.436;2023-05-20T07:58:41;100426.72;;;17.84;79.73
61318;BME280;47201;40.428;-8.436;2023-05-20T08:00:43;100420.84;;;18.01;79.37
61318;BME280;47201;40.428;-8.436;2023-05-20T08:02:45;100428.31;;;17.88;80.09
61318;BME280;47201;40.428;-8.436;2023-05-20T08:05:04;100419.94;;;18.26;79.31
61318;BME280;47201;40.428;-8.436;2023-05-20T08:07:05;100438.47;;;18.48;78.94
61318;BME280;47201;40.428;-8.436;2023-05-20T08:09:15;100433.03;;;18.75;78.47
61318;BME280;47201;40.428;-8.436;2023-05-20T08:11:21;100444.38;;;19.01;78.37
61318;BME280;47201;40.428;-8.436;2023-05-20T08:13:41;100453.13;;;19.03;78.12
61318;BME280;47201;40.428;-8.436;2023-05-20T08:15:41;100448.19;;;19.37;77.20
61318;BME280;47201;40.428;-8.436;2023-05-20T08:18:00;100451.72;;;19.78;76.32
61318;BME280;47201;40.428;-8.436;2023-05-20T08:20:01;100455.31;;;19.57;76.94
61318;BME280;47201;40.428;-8.436;2023-05-20T08:22:05;100444.00;;;19.31;77.37
61318;BME280;47201;40.428;-8.436;2023-05-20T08:24:07;100451.50;;;19.42;77.43
61318;BME280;47201;40.428;-8.436;2023-05-20T08:31:08;100448.19;;;18.71;78.69
61318;BME280;47201;40.428;-8.436;2023-05-20T08:33:10;100442.75;;;18.52;79.08
61318;BME280;47201;40.428;-8.436;2023-05-20T08:35:12;100456.25;;;19.13;78.32
61318;BME280;47201;40.428;-8.436;2023-05-20T08:37:13;100452.31;;;19.64;77.76
61318;BME280;47201;40.428;-8.436;2023-05-20T08:39:14;100456.63;;;19.46;77.29
61318;BME280;47201;40.428;-8.436;2023-05-20T08:41:15;100452.25;;;20.45;75.95
61318;BME280;47201;40.428;-8.436;2023-05-20T08:43:18;100454.59;;;20.71;75.17
61318;BME280;47201;40.428;-8.436;2023-05-20T08:45:20;100456.34;;;20.91;75.00
61318;BME280;47201;40.428;-8.436;2023-05-20T08:47:44;100452.28;;;19.87;77.04
61318;BME280;47201;40.428;-8.436;2023-05-20T08:49:45;100456.47;;;20.11;76.78
61318;BME280;47201;40.428;-8.436;2023-05-20T08:51:45;100456.50;;;19.91;77.51
61318;BME280;47201;40.428;-8.436;2023-05-20T08:53:47;100443.50;;;19.85;77.72
61318;BME280;47201;40.428;-8.436;2023-05-20T08:55:53;100451.16;;;20.31;76.94
61318;BME280;47201;40.428;-8.436;2023-05-20T08:57:57;100446.63;;;20.90;76.49
61318;BME280;47201;40.428;-8.436;2023-05-20T09:00:17;100437.56;;;20.76;76.14
61318;BME280;47201;40.428;-8.436;2023-05-20T09:02:19;100449.78;;;21.16;75.67
61318;BME280;47201;40.428;-8.436;2023-05-20T09:04:19;100449.34;;;21.43;75.35
61318;BME280;47201;40.428;-8.436;2023-05-20T09:06:57;100439.19;;;20.60;77.13
61318;BME280;47201;40.428;-8.436;2023-05-20T09:09:17;100439.88;;;21.02;76.03
61318;BME280;47201;40.428;-8.436;2023-05-20T09:11:19;100429.28;;;21.00;76.27
61318;BME280;47201;40.428;-8.436;2023-05-20T09:13:40;100438.88;;;21.22;76.50
61318;BME280;47201;40.428;-8.436;2023-05-20T09:15:41;100437.00;;;21.42;76.63
61318;BME280;47201;40.428;-8.436;2023-05-20T09:17:42;100438.00;;;21.21;76.50
61318;BME280;47201;40.428;-8.436;2023-05-20T09:19:43;100434.31;;;21.24;76.61
61318;BME280;47201;40.428;-8.436;2023-05-20T09:21:45;100432.94;;;21.34;76.24
61318;BME280;47201;40.428;-8.436;2023-05-20T09:24:06;100434.59;;;21.00;76.45
61318;BME280;47201;40.428;-8.436;2023-05-20T09:26:07;100436.47;;;20.42;77.00
61318;BME280;47201;40.428;-8.436;2023-05-20T09:30:47;100438.69;;;21.78;76.00
61318;BME280;47201;40.428;-8.436;2023-05-20T09:33:07;100435.63;;;22.35;74.70
61318;BME280;47201;40.428;-8.436;2023-05-20T09:40:28;100452.97;;;23.67;72.22
61318;BME280;47201;40.428;-8.436;2023-05-20T09:43:06;100444.41;;;23.62;72.64
61318;BME280;47201;40.428;-8.436;2023-05-20T09:45:26;100457.53;;;23.20;72.64
61318;BME280;47201;40.428;-8.436;2023-05-20T09:47:46;100447.81;;;23.19;72.89
61318;BME280;47201;40.428;-8.436;2023-05-20T09:49:46;100452.34;;;22.21;74.78
61318;BME280;47201;40.428;-8.436;2023-05-20T09:51:48;100449.69;;;22.39;75.28
61318;BME280;47201;40.428;-8.436;2023-05-20T09:53:50;100454.13;;;22.05;75.73
61318;BME280;47201;40.428;-8.436;2023-05-20T09:56:11;100451.78;;;22.32;74.67
61318;BME280;47201;40.428;-8.436;2023-05-20T09:58:33;100454.50;;;22.14;74.77
61318;BME280;47201;40.428;-8.436;2023-05-20T10:00:35;100450.34;;;22.26;75.63
61318;BME280;47201;40.428;-8.436;2023-05-20T10:02:35;100453.81;;;22.44;75.01
61318;BME280;47201;40.428;-8.436;2023-05-20T10:04:37;100442.03;;;22.48;75.16
61318;BME280;47201;40.428;-8.436;2023-05-20T10:15:00;100444.09;;;23.38;73.81
61318;BME280;47201;40.428;-8.436;2023-05-20T10:17:21;100446.09;;;24.08;73.53
61318;BME280;47201;40.428;-8.436;2023-05-20T10:27:10;100459.78;;;26.32;68.93
61318;BME280;47201;40.428;-8.436;2023-05-20T10:31:19;100458.31;;;28.08;67.71
61318;BME280;47201;40.428;-8.436;2023-05-20T10:33:20;100461.84;;;28.42;67.62
61318;BME280;47201;40.428;-8.436;2023-05-20T10:35:22;100457.31;;;28.54;66.90
61318;BME280;47201;40.428;-8.436;2023-05-20T10:37:29;100449.94;;;28.68;67.50
61318;BME280;47201;40.428;-8.436;2023-05-20T10:39:48;100452.03;;;28.64;67.54
61318;BME280;47201;40.428;-8.436;2023-05-20T10:42:09;100449.13;;;27.99;67.74
61318;BME280;47201;40.428;-8.436;2023-05-20T10:44:10;100441.81;;;27.90;67.95
61318;BME280;47201;40.428;-8.436;2023-05-20T10:46:17;100440.81;;;27.91;68.42
61318;BME280;47201;40.428;-8.436;2023-05-20T10:48:40;100437.88;;;28.50;68.68
61318;BME280;47201;40.428;-8.436;2023-05-20T10:51:01;100433.25;;;29.50;67.61
61318;BME280;47201;40.428;-8.436;2023-05-20T10:53:25;100440.06;;;30.06;66.98
61318;BME280;47201;40.428;-8.436;2023-05-20T10:55:34;100446.75;;;29.81;65.88
61318;BME280;47201;40.428;-8.436;2023-05-20T10:57:37;100437.28;;;28.58;66.93
61318;BME280;47201;40.428;-8.436;2023-05-20T10:59:39;100425.97;;;28.09;67.75
61318;BME280;47201;40.428;-8.436;2023-05-20T11:02:00;100433.38;;;28.40;68.42
61318;BME280;47201;40.428;-8.436;2023-05-20T11:10:12;100415.06;;;27.54;68.91
61318;BME280;47201;40.428;-8.436;2023-05-20T11:14:52;100416.41;;;28.83;68.88
61318;BME280;47201;40.428;-8.436;2023-05-20T11:17:02;100407.97;;;29.41;67.96
61318;BME280;47201;40.428;-8.436;2023-05-20T11:19:22;100421.78;;;29.79;68.29
61318;BME280;47201;40.428;-8.436;2023-05-20T11:21:23;100413.00;;;30.08;68.15
61318;BME280;47201;40.428;-8.436;2023-05-20T11:23:42;100409.66;;;29.95;67.44
61318;BME280;47201;40.428;-8.436;2023-05-20T11:25:43;100412.66;;;29.70;68.41
61318;BME280;47201;40.428;-8.436;2023-05-20T11:28:12;100401.69;;;28.99;69.54
61318;BME280;47201;40.428;-8.436;2023-05-20T11:30:14;100406.41;;;28.85;70.66
61318;BME280;47201;40.428;-8.436;2023-05-20T11:32:20;100396.53;;;28.74;69.70
61318;BME280;47201;40.428;-8.436;2023-05-20T11:34:21;100393.75;;;28.97;69.55
61318;BME280;47201;40.428;-8.436;2023-05-20T11:36:22;100391.50;;;29.02;69.57
61318;BME280;47201;40.428;-8.436;2023-05-20T11:38:23;100393.22;;;27.93;69.72
61318;BME280;47201;40.428;-8.436;2023-05-20T11:40:24;100382.34;;;28.28;70.73
61318;BME280;47201;40.428;-8.436;2023-05-20T11:42:26;100385.78;;;28.08;71.17
61318;BME280;47201;40.428;-8.436;2023-05-20T11:44:28;100387.25;;;27.89;70.96
61318;BME280;47201;40.428;-8.436;2023-05-20T11:46:29;100386.75;;;27.73;71.88
61318;BME280;47201;40.428;-8.436;2023-05-20T11:48:30;100378.94;;;27.69;71.55
61318;BME280;47201;40.428;-8.436;2023-05-20T11:50:49;100375.16;;;27.83;72.14
61318;BME280;47201;40.428;-8.436;2023-05-20T11:52:59;100377.47;;;27.65;71.75
61318;BME280;47201;40.428;-8.436;2023-05-20T11:55:01;100372.03;;;27.31;72.57
61318;BME280;47201;40.428;-8.436;2023-05-20T11:57:05;100371.44;;;26.92;72.48
61318;BME280;47201;40.428;-8.436;2023-05-20T11:59:24;100363.03;;;26.24;73.11
61318;BME280;47201;40.428;-8.436;2023-05-20T12:01:29;100360.53;;;25.19;74.31
61318;BME280;47201;40.428;-8.436;2023-05-20T12:03:31;100365.97;;;25.17;74.87
61318;BME280;47201;40.428;-8.436;2023-05-20T12:08:22;100367.25;;;27.12;71.57
61318;BME280;47201;40.428;-8.436;2023-05-20T12:10:23;100364.16;;;27.75;70.81
61318;BME280;47201;40.428;-8.436;2023-05-20T12:12:42;100356.47;;;27.93;70.82
61318;BME280;47201;40.428;-8.436;2023-05-20T12:14:44;100355.88;;;27.08;71.61
61318;BME280;47201;40.428;-8.436;2023-05-20T12:17:22;100355.91;;;25.34;73.66
61318;BME280;47201;40.428;-8.436;2023-05-20T12:22:39;100353.13;;;24.42;75.93
61318;BME280;47201;40.428;-8.436;2023-05-20T12:27:00;100352.47;;;25.32;75.88
61318;BME280;47201;40.428;-8.436;2023-05-20T12:29:06;100344.09;;;25.38;75.10
61318;BME280;47201;40.428;-8.436;2023-05-20T12:31:07;100346.22;;;25.46;75.35
61318;BME280;47201;40.428;-8.436;2023-05-20T12:33:08;100344.25;;;25.35;75.17
61318;BME280;47201;40.428;-8.436;2023-05-20T12:35:42;100333.78;;;25.19;74.50
61318;BME280;47201;40.428;-8.436;2023-05-20T12:40:40;100326.56;;;25.97;73.56
61318;BME280;47201;40.428;-8.436;2023-05-20T12:42:41;100319.03;;;25.52;74.85
61318;BME280;47201;40.428;-8.436;2023-05-20T12:45:00;100325.00;;;25.30;74.65
61318;BME280;47201;40.428;-8.436;2023-05-20T12:47:39;100320.72;;;25.14;76.67
61318;BME280;47201;40.428;-8.436;2023-05-20T12:49:40;100314.63;;;25.12;75.77
61318;BME280;47201;40.428;-8.436;2023-05-20T12:51:41;100308.63;;;25.34;76.38
61318;BME280;47201;40.428;-8.436;2023-05-20T12:54:00;100313.97;;;25.73;75.94
61318;BME280;47201;40.428;-8.436;2023-05-20T12:56:19;100300.59;;;24.83;76.44
61318;BME280;47201;40.428;-8.436;2023-05-20T12:58:38;100303.25;;;24.96;77.04
61318;BME280;47201;40.428;-8.436;2023-05-20T13:00:39;100298.56;;;25.51;77.06
61318;BME280;47201;40.428;-8.436;2023-05-20T13:02:40;100291.16;;;25.80;76.22
61318;BME280;47201;40.428;-8.436;2023-05-20T13:04:41;100289.34;;;25.29;76.78
61318;BME280;47201;40.428;-8.436;2023-05-20T13:06:42;100287.34;;;25.96;76.18
61318;BME280;47201;40.428;-8.436;2023-05-20T13:08:42;100284.94;;;25.80;76.46
61318;BME280;47201;40.428;-8.436;2023-05-20T13:10:45;100286.59;;;25.57;76.34
61318;BME280;47201;40.428;-8.436;2023-05-20T13:13:04;100287.41;;;25.70;75.88
61318;BME280;47201;40.428;-8.436;2023-05-20T13:15:05;100287.00;;;25.76;76.33
61318;BME280;47201;40.428;-8.436;2023-05-20T13:19:26;100286.06;;;25.64;75.87
61318;BME280;47201;40.428;-8.436;2023-05-20T13:21:27;100276.78;;;25.44;75.35
61318;BME280;47201;40.428;-8.436;2023-05-20T13:23:47;100272.16;;;25.46;76.00
61318;BME280;47201;40.428;-8.436;2023-05-20T13:26:07;100269.44;;;25.96;75.17
61318;BME280;47201;40.428;-8.436;2023-05-20T13:28:08;100267.19;;;26.03;74.86
61318;BME280;47201;40.428;-8.436;2023-05-20T13:30:10;100264.03;;;25.85;75.19
61318;BME280;47201;40.428;-8.436;2023-05-20T13:32:11;100263.44;;;26.30;75.29
61318;BME280;47201;40.428;-8.436;2023-05-20T13:34:12;100267.38;;;26.37;74.35
61318;BME280;47201;40.428;-8.436;2023-05-20T13:36:13;100260.91;;;26.64;74.31
61318;BME280;47201;40.428;-8.436;2023-05-20T13:38:13;100254.81;;;26.73;74.78
61318;BME280;47201;40.428;-8.436;2023-05-20T13:40:14;100246.28;;;26.33;74.00
61318;BME280;47201;40.428;-8.436;2023-05-20T13:42:36;100249.09;;;26.31;74.04
61318;BME280;47201;40.428;-8.436;2023-05-20T13:44:37;100247.47;;;26.04;75.43
61318;BME280;47201;40.428;-8.436;2023-05-20T13:46:38;100241.91;;;26.07;75.00
61318;BME280;47201;40.428;-8.436;2023-05-20T13:48:38;100233.66;;;25.73;74.87
61318;BME280;47201;40.428;-8.436;2023-05-20T13:50:39;100234.56;;;25.35;74.94
61318;BME280;47201;40.428;-8.436;2023-05-20T13:52:41;100224.31;;;25.29;75.54
61318;BME280;47201;40.428;-8.436;2023-05-20T13:54:43;100226.03;;;25.17;75.85
61318;BME280;47201;40.428;-8.436;2023-05-20T13:56:45;100229.69;;;24.77;75.11
61318;BME280;47201;40.428;-8.436;2023-05-20T13:59:05;100224.25;;;24.92;75.05
61318;BME280;47201;40.428;-8.436;2023-05-20T14:01:06;100231.25;;;25.31;74.98
61318;BME280;47201;40.428;-8.436;2023-05-20T14:03:08;100229.44;;;25.45;74.73
61318;BME280;47201;40.428;-8.436;2023-05-20T14:05:09;100225.19;;;25.42;74.67
61318;BME280;47201;40.428;-8.436;2023-05-20T14:07:11;100225.34;;;25.65;75.05
61318;BME280;47201;40.428;-8.436;2023-05-20T14:09:12;100215.78;;;25.24;74.81
61318;BME280;47201;40.428;-8.436;2023-05-20T14:11:13;100213.69;;;24.50;74.58
61318;BME280;47201;40.428;-8.436;2023-05-20T14:13:32;100223.72;;;24.86;75.71
61318;BME280;47201;40.428;-8.436;2023-05-20T14:15:51;100222.22;;;25.08;75.74
61318;BME280;47201;40.428;-8.436;2023-05-20T14:17:53;100216.84;;;24.95;75.75
61318;BME280;47201;40.428;-8.436;2023-05-20T14:19:54;100212.13;;;24.60;75.48
61318;BME280;47201;40.428;-8.436;2023-05-20T14:21:55;100208.84;;;24.82;74.98
61318;BME280;47201;40.428;-8.436;2023-05-20T14:23:57;100214.38;;;25.31;75.00
61318;BME280;47201;40.428;-8.436;2023-05-20T14:25:59;100209.25;;;25.78;74.35
61318;BME280;47201;40.428;-8.436;2023-05-20T14:28:00;100199.03;;;25.59;73.94
61318;BME280;47201;40.428;-8.436;2023-05-20T14:30:01;100201.88;;;25.93;73.61
61318;BME280;47201;40.428;-8.436;2023-05-20T14:32:05;100202.84;;;26.40;73.66
61318;BME280;47201;40.428;-8.436;2023-05-20T14:34:06;100197.34;;;26.78;72.27